Time;durP1;ratioP1;P1;durP2;ratioP2;P2;SDS_P1;SDS_P2;PMS_P1;PMS_P2;Temp;Humidity;BMP_temperature;BMP_pressure;BME280_temperature;BME280_humidity;BME280_pressure;Samples;Min_cycle;Max_cycle;Signal;HPM_P1;HPM_P2
2021/01/29 00:00:07;;;;;;;21.42;13.40;;;2.50;96.50;;;;;;5043137;28;20117;-85
2021/01/29 00:02:32;;;;;;;25.20;13.48;;;2.60;96.50;;;;;;5039671;28;20132;-85
2021/01/29 00:04:58;;;;;;;29.52;15.20;;;2.60;96.60;;;;;;5038558;28;20558;-85
2021/01/29 00:07:23;;;;;;;26.40;14.02;;;2.60;96.50;;;;;;5029302;28;20092;-85
2021/01/29 00:09:49;;;;;;;25.27;13.90;;;2.60;96.60;;;;;;5035334;28;20037;-84
2021/01/29 00:12:15;;;;;;;26.00;14.57;;;2.60;96.70;;;;;;5034918;28;20480;-85
2021/01/29 00:14:40;;;;;;;27.50;15.73;;;2.60;96.70;;;;;;5035986;28;20033;-85
2021/01/29 00:17:06;;;;;;;30.88;17.45;;;2.60;96.70;;;;;;5038043;28;20045;-85
2021/01/29 00:19:32;;;;;;;34.65;16.38;;;2.60;96.90;;;;;;5037967;28;20041;-84
2021/01/29 00:21:58;;;;;;;28.55;16.02;;;2.60;96.90;;;;;;5038875;28;20033;-85
2021/01/29 00:24:24;;;;;;;34.03;18.60;;;2.60;96.90;;;;;;5041938;28;20038;-85
2021/01/29 00:26:49;;;;;;;30.83;16.08;;;2.60;96.80;;;;;;5037726;28;20048;-84
2021/01/29 00:29:15;;;;;;;26.63;16.83;;;2.60;96.80;;;;;;5036147;28;20113;-85
2021/01/29 00:31:41;;;;;;;32.10;17.80;;;2.80;96.80;;;;;;5040268;28;20036;-85
2021/01/29 00:34:06;;;;;;;35.15;18.65;;;2.60;96.70;;;;;;5036134;28;20057;-85
2021/01/29 00:36:33;;;;;;;35.10;18.55;;;2.60;96.80;;;;;;5037477;28;20045;-85
2021/01/29 00:38:59;;;;;;;31.42;17.65;;;2.90;96.90;;;;;;5037918;28;20072;-84
2021/01/29 00:41:25;;;;;;;34.67;19.48;;;2.80;96.90;;;;;;5038345;28;20072;-85
2021/01/29 00:43:51;;;;;;;36.58;20.40;;;2.60;96.90;;;;;;5029296;28;20092;-85
2021/01/29 00:46:20;;;;;;;38.95;19.65;;;2.60;96.90;;;;;;5038147;28;20037;-85
2021/01/29 00:48:47;;;;;;;42.95;22.15;;;2.60;97.00;;;;;;5042669;28;20048;-84
2021/01/29 00:51:13;;;;;;;37.10;20.35;;;2.60;97.00;;;;;;5036344;28;20045;-84
2021/01/29 00:53:39;;;;;;;36.75;19.63;;;2.60;97.00;;;;;;5041338;28;20049;-85
2021/01/29 00:56:06;;;;;;;34.70;19.77;;;2.60;96.90;;;;;;5046335;28;20046;-84
2021/01/29 00:58:33;;;;;;;35.50;19.45;;;2.60;96.90;;;;;;5034546;28;20047;-85
2021/01/29 01:00:59;;;;;;;36.08;19.95;;;2.60;96.90;;;;;;5042533;28;20047;-85
2021/01/29 01:03:24;;;;;;;38.88;21.23;;;2.60;96.90;;;;;;5040444;28;20762;-86
2021/01/29 01:05:51;;;;;;;39.28;20.63;;;2.60;97.00;;;;;;5040358;28;20034;-84
2021/01/29 01:08:17;;;;;;;41.97;22.15;;;2.60;97.00;;;;;;5041242;28;20033;-85
2021/01/29 01:10:43;;;;;;;41.17;21.55;;;2.60;96.90;;;;;;5038392;28;20098;-84
2021/01/29 01:13:09;;;;;;;44.80;22.48;;;2.60;97.00;;;;;;5031993;28;20038;-85
2021/01/29 01:15:34;;;;;;;37.88;20.42;;;2.60;97.00;;;;;;5044386;28;20041;-85
2021/01/29 01:18:01;;;;;;;44.33;23.25;;;2.60;97.00;;;;;;5045505;28;20037;-85
2021/01/29 01:20:29;;;;;;;40.63;21.10;;;2.60;97.00;;;;;;5038284;28;20033;-85
2021/01/29 01:22:56;;;;;;;38.35;20.95;;;2.60;97.00;;;;;;5043374;28;20037;-86
2021/01/29 01:25:22;;;;;;;46.97;22.02;;;2.60;97.00;;;;;;5040220;28;20030;-85
2021/01/29 01:27:48;;;;;;;46.38;23.25;;;2.60;97.00;;;;;;5039071;28;20048;-85
2021/01/29 01:30:24;;;;;;;41.50;21.42;;;2.70;97.10;;;;;;5033673;28;20037;-85
2021/01/29 01:32:49;;;;;;;39.45;21.38;;;2.60;97.40;;;;;;5033832;28;20037;-85
2021/01/29 01:35:17;;;;;;;38.95;21.25;;;2.60;97.10;;;;;;5039896;28;20041;-85
2021/01/29 01:37:43;;;;;;;44.88;22.40;;;2.60;97.50;;;;;;5045791;28;20059;-86
2021/01/29 01:40:09;;;;;;;43.85;21.55;;;2.60;97.20;;;;;;5028139;28;20041;-87
2021/01/29 01:42:35;;;;;;;39.42;20.42;;;2.60;97.30;;;;;;5039101;28;20041;-86
2021/01/29 01:45:02;;;;;;;48.72;23.23;;;2.70;97.30;;;;;;5037437;28;20042;-86
2021/01/29 01:47:37;;;;;;;35.15;20.10;;;2.60;97.30;;;;;;5040626;28;20136;-86
2021/01/29 01:50:16;;;;;;;38.80;20.20;;;2.60;97.40;;;;;;5041319;28;20108;-86
2021/01/29 01:52:42;;;;;;;38.63;19.63;;;2.60;97.40;;;;;;5035429;28;20059;-86
2021/01/29 01:55:13;;;;;;;35.53;19.13;;;2.60;97.30;;;;;;5038919;28;20042;-85
2021/01/29 01:57:43;;;;;;;40.35;19.95;;;2.60;97.40;;;;;;5047623;28;20044;-86
2021/01/29 02:00:13;;;;;;;44.03;20.58;;;2.60;97.40;;;;;;5037526;28;20531;-86
2021/01/29 02:02:41;;;;;;;31.48;18.38;;;2.60;97.40;;;;;;5037368;28;20146;-86
2021/01/29 02:05:15;;;;;;;36.85;18.70;;;2.60;97.50;;;;;;5037512;28;20038;-85
2021/01/29 02:07:53;;;;;;;32.72;17.65;;;2.70;97.50;;;;;;5040961;28;20037;-86
2021/01/29 02:10:21;;;;;;;36.92;19.33;;;2.70;97.50;;;;;;5037045;28;20042;-85
2021/01/29 02:12:47;;;;;;;43.60;20.48;;;2.70;97.90;;;;;;5034892;28;20113;-85
2021/01/29 02:15:18;;;;;;;37.33;18.45;;;2.60;97.50;;;;;;5034973;28;20112;-86
2021/01/29 02:17:50;;;;;;;41.78;20.42;;;2.60;97.60;;;;;;5039170;28;20095;-86
2021/01/29 02:20:31;;;;;;;41.08;19.85;;;2.60;97.60;;;;;;5033927;28;20034;-86
2021/01/29 02:23:31;;;;;;;43.58;21.30;;;2.60;97.70;;;;;;5029497;28;20045;-86
2021/01/29 02:26:30;;;;;;;39.50;20.35;;;2.70;97.70;;;;;;5031736;28;20048;-85
2021/01/29 02:29:31;;;;;;;50.58;22.55;;;2.60;97.70;;;;;;5029642;28;20113;-85
2021/01/29 02:32:35;;;;;;;35.22;19.20;;;2.60;97.70;;;;;;5037999;28;20048;-86
2021/01/29 02:35:22;;;;;;;34.50;17.58;;;2.70;97.70;;;;;;5034385;28;20578;-86
2021/01/29 02:38:23;;;;;;;39.65;21.52;;;2.70;97.70;;;;;;5037756;28;20056;-86
2021/01/29 02:41:21;;;;;;;33.33;18.38;;;2.60;97.60;;;;;;5032089;28;20048;-86
2021/01/29 02:44:06;;;;;;;35.72;18.73;;;2.70;97.50;;;;;;4973809;28;20047;-86
2021/01/29 02:47:00;;;;;;;43.55;21.63;;;2.70;97.50;;;;;;5036801;28;20033;-86
2021/01/29 02:49:35;;;;;;;41.47;20.73;;;2.70;97.60;;;;;;5045532;28;20060;-85
2021/01/29 02:52:12;;;;;;;41.83;22.20;;;2.70;97.60;;;;;;5043116;28;20491;-85
2021/01/29 02:54:39;;;;;;;45.42;22.85;;;2.70;97.60;;;;;;5040046;28;20030;-85
2021/01/29 02:57:33;;;;;;;38.67;20.63;;;2.80;97.60;;;;;;5026572;28;20102;-86
2021/01/29 03:00:13;;;;;;;44.13;23.58;;;2.70;97.70;;;;;;5034090;28;20112;-87
2021/01/29 03:03:00;;;;;;;42.80;21.88;;;2.70;97.60;;;;;;5024468;28;20049;-86
2021/01/29 03:05:49;;;;;;;;;;;2.80;97.60;;;;;;5046184;28;20064;-86
2021/01/29 03:08:29;;;;;;;53.90;23.83;;;2.80;97.60;;;;;;5027179;28;20009;-86
2021/01/29 03:11:07;;;;;;;42.75;22.92;;;2.70;97.70;;;;;;5028746;28;20472;-85
2021/01/29 03:13:48;;;;;;;40.72;22.40;;;2.80;97.70;;;;;;5037905;28;20047;-86
2021/01/29 03:16:21;;;;;;;52.88;25.33;;;2.80;97.70;;;;;;5042984;28;20890;-86
2021/01/29 03:19:14;;;;;;;56.05;25.98;;;2.80;97.80;;;;;;5034284;28;20144;-86
2021/01/29 03:21:47;;;;;;;47.15;23.02;;;2.70;97.80;;;;;;5037441;28;20045;-85
2021/01/29 03:24:23;;;;;;;55.80;24.42;;;2.70;97.80;;;;;;5038218;28;20041;-86
2021/01/29 03:26:55;;;;;;;45.33;22.83;;;2.80;97.90;;;;;;5044335;28;20033;-86
2021/01/29 03:29:23;;;;;;;52.25;24.85;;;2.80;97.90;;;;;;5044740;28;20045;-86
2021/01/29 03:31:56;;;;;;;61.78;27.25;;;2.80;97.90;;;;;;5038066;28;20443;-85
2021/01/29 03:34:49;;;;;;;46.75;22.65;;;2.80;97.90;;;;;;5043566;28;20041;-85
2021/01/29 03:37:26;;;;;;;50.72;24.25;;;2.80;97.90;;;;;;5041954;28;20487;-86
2021/01/29 03:39:52;;;;;;;50.20;23.35;;;2.80;97.90;;;;;;5047594;28;20043;-86
2021/01/29 03:42:28;;;;;;;47.13;24.50;;;2.80;97.90;;;;;;5046900;28;20092;-86
2021/01/29 03:45:22;;;;;;;55.03;25.15;;;2.80;97.90;;;;;;5032845;28;20045;-86
2021/01/29 03:48:09;;;;;;;54.60;26.35;;;2.80;97.90;;;;;;5036781;28;21439;-86
2021/01/29 03:50:59;;;;;;;43.97;22.30;;;2.80;97.90;;;;;;5040027;28;20049;-85
2021/01/29 03:53:44;;;;;;;45.97;23.63;;;2.90;98.00;;;;;;5040004;28;20417;-86
2021/01/29 03:56:35;;;;;;;51.47;24.50;;;2.90;97.90;;;;;;5032923;28;20037;-86
2021/01/29 03:59:19;;;;;;;50.20;23.73;;;2.90;97.90;;;;;;5042709;28;20037;-86
2021/01/29 04:02:03;;;;;;;50.42;23.80;;;2.80;97.90;;;;;;5038601;28;20135;-86
2021/01/29 04:04:38;;;;;;;53.08;24.52;;;2.90;97.90;;;;;;5039337;28;20525;-86
2021/01/29 04:07:17;;;;;;;50.00;24.07;;;2.90;98.00;;;;;;5040147;28;20044;-85
2021/01/29 04:09:49;;;;;;;50.13;23.52;;;2.90;98.00;;;;;;5035883;28;20292;-85
2021/01/29 04:12:23;;;;;;;43.28;22.48;;;2.90;97.90;;;;;;5042289;28;20698;-86
2021/01/29 04:15:01;;;;;;;49.55;24.58;;;2.90;97.90;;;;;;5040164;28;20037;-85
2021/01/29 04:17:35;;;;;;;51.70;23.95;;;2.90;97.90;;;;;;5046279;28;20052;-85
2021/01/29 04:20:12;;;;;;;47.67;24.88;;;2.90;97.90;;;;;;5036127;28;20041;-85
2021/01/29 04:22:41;;;;;;;48.38;24.40;;;2.90;97.90;;;;;;5036731;28;20045;-85
2021/01/29 04:25:13;;;;;;;43.80;24.55;;;2.90;97.90;;;;;;5036054;28;20092;-84
2021/01/29 04:27:42;;;;;;;37.15;19.27;;;2.90;97.90;;;;;;5033920;28;20038;-86
2021/01/29 04:30:19;;;;;;;48.70;24.17;;;2.90;98.10;;;;;;5038755;28;20049;-85
2021/01/29 04:33:01;;;;;;;43.83;21.98;;;2.90;97.80;;;;;;5039283;28;20617;-85
2021/01/29 04:35:29;;;;;;;41.78;20.90;;;2.90;97.80;;;;;;5041085;28;20048;-85
2021/01/29 04:38:12;;;;;;;42.28;23.02;;;2.90;97.70;;;;;;5022661;28;20052;-86
2021/01/29 04:41:12;;;;;;;41.67;22.42;;;2.90;97.70;;;;;;5034258;28;20045;-85
2021/01/29 04:43:46;;;;;;;42.58;22.02;;;2.90;97.70;;;;;;5036661;28;20083;-85
2021/01/29 04:46:49;;;;;;;50.65;24.75;;;2.90;97.80;;;;;;5037635;28;20038;-85
2021/01/29 04:49:33;;;;;;;44.15;22.25;;;2.90;97.80;;;;;;5035992;28;20124;-85
2021/01/29 04:52:34;;;;;;;46.88;23.05;;;2.90;97.80;;;;;;5035200;28;20070;-86
2021/01/29 04:55:18;;;;;;;43.92;22.00;;;2.80;97.80;;;;;;5032689;28;20457;-85
2021/01/29 04:58:26;;;;;;;34.75;18.55;;;2.80;97.90;;;;;;5041333;28;20044;-86
2021/01/29 05:01:07;;;;;;;30.10;17.73;;;2.90;97.80;;;;;;5037336;28;20045;-85
2021/01/29 05:03:54;;;;;;;35.22;18.40;;;2.80;97.80;;;;;;5042593;28;20037;-85
2021/01/29 05:06:47;;;;;;;32.45;17.38;;;2.80;97.80;;;;;;5032748;28;20112;-85
2021/01/29 05:09:27;;;;;;;27.50;15.18;;;2.80;97.80;;;;;;5032169;28;20038;-85
2021/01/29 05:12:03;;;;;;;28.13;15.52;;;2.80;97.80;;;;;;5032590;28;20642;-85
2021/01/29 05:14:55;;;;;;;26.88;15.23;;;2.80;97.80;;;;;;5040313;28;20041;-84
2021/01/29 05:17:48;;;;;;;21.02;12.32;;;2.80;97.70;;;;;;5041020;28;20120;-85
2021/01/29 05:20:26;;;;;;;20.30;12.50;;;2.80;97.70;;;;;;5031960;28;20037;-84
2021/01/29 05:22:59;;;;;;;21.50;13.57;;;2.80;97.70;;;;;;5029278;28;20116;-86
2021/01/29 05:25:55;;;;;;;20.40;12.82;;;2.80;97.90;;;;;;5034866;28;20422;-85
2021/01/29 05:28:41;;;;;;;23.60;13.90;;;2.80;97.60;;;;;;5031724;28;20041;-85
2021/01/29 05:31:27;;;;;;;20.75;12.77;;;2.80;97.60;;;;;;5029469;28;20086;-85
2021/01/29 05:34:08;;;;;;;20.40;12.50;;;2.80;97.40;;;;;;5028197;28;20029;-85
2021/01/29 05:36:58;;;;;;;22.60;12.20;;;2.80;97.50;;;;;;5031446;28;20061;-84
2021/01/29 05:39:48;;;;;;;17.52;11.32;;;2.80;97.40;;;;;;5027750;28;20099;-85
2021/01/29 05:42:32;;;;;;;21.60;11.88;;;2.80;97.40;;;;;;5035913;28;20395;-84
2021/01/29 05:45:36;;;;;;;20.88;12.30;;;2.80;97.50;;;;;;5036352;28;20120;-85
2021/01/29 05:48:25;;;;;;;21.50;11.70;;;2.80;97.40;;;;;;5031148;28;20484;-85
2021/01/29 05:51:17;;;;;;;18.65;11.80;;;2.80;97.50;;;;;;4992415;28;20128;-85
2021/01/29 05:54:05;;;;;;;15.93;9.85;;;2.70;97.40;;;;;;5029062;28;20049;-85
2021/01/29 05:57:04;;;;;;;19.48;11.57;;;2.70;97.40;;;;;;5031652;28;20164;-85
2021/01/29 05:59:39;;;;;;;19.17;11.63;;;2.70;97.40;;;;;;5033426;28;20040;-86
2021/01/29 06:02:46;;;;;;;13.75;9.65;;;2.70;97.50;;;;;;5031121;28;20116;-85
2021/01/29 06:05:40;;;;;;;13.73;10.27;;;2.70;97.30;;;;;;4996053;28;20084;-85
2021/01/29 06:08:32;;;;;;;15.75;10.43;;;2.70;97.30;;;;;;5032134;28;20065;-85
2021/01/29 06:11:37;;;;;;;13.50;9.70;;;2.70;97.20;;;;;;5033135;28;20037;-86
2021/01/29 06:14:40;;;;;;;16.45;10.38;;;2.70;97.30;;;;;;5008559;28;20060;-85
2021/01/29 06:17:25;;;;;;;16.58;10.95;;;2.70;97.40;;;;;;5031003;28;20092;-86
2021/01/29 06:20:29;;;;;;;11.63;8.88;;;2.70;97.40;;;;;;5033961;28;20063;-85
2021/01/29 06:23:32;;;;;;;14.48;9.85;;;2.70;97.30;;;;;;5036315;28;20052;-84
2021/01/29 06:26:42;;;;;;;14.05;9.73;;;2.60;97.30;;;;;;5034776;28;20037;-85
2021/01/29 06:29:29;;;;;;;13.00;8.63;;;2.60;97.40;;;;;;5028854;28;20139;-85
2021/01/29 06:32:29;;;;;;;11.45;8.32;;;2.60;97.30;;;;;;5042121;28;20033;-85
2021/01/29 06:35:54;;;;;;;14.40;9.93;;;2.60;97.30;;;;;;5026653;28;20036;-85
2021/01/29 06:38:53;;;;;;;14.70;9.95;;;2.60;97.40;;;;;;4980324;28;20055;-84
2021/01/29 06:41:37;;;;;;;13.48;10.65;;;2.60;97.50;;;;;;5033621;28;20117;-85
2021/01/29 06:44:27;;;;;;;13.77;9.65;;;2.60;97.50;;;;;;5038121;28;20506;-84
2021/01/29 06:47:08;;;;;;;12.10;9.88;;;2.60;97.40;;;;;;5042287;28;20475;-85
2021/01/29 06:49:58;;;;;;;15.88;10.63;;;2.60;97.50;;;;;;5041343;28;20407;-85
2021/01/29 06:52:52;;;;;;;13.25;9.48;;;2.60;97.50;;;;;;5039462;28;20112;-85
2021/01/29 06:55:54;;;;;;;13.45;8.68;;;2.60;97.40;;;;;;5042192;28;20042;-85
2021/01/29 06:59:06;;;;;;;15.80;10.63;;;2.60;97.50;;;;;;5038840;28;20475;-85
2021/01/29 07:01:50;;;;;;;15.40;10.32;;;2.50;97.50;;;;;;5038991;28;20037;-86
2021/01/29 07:04:36;;;;;;;14.80;10.48;;;2.60;97.50;;;;;;5033897;28;20034;-86
2021/01/29 07:07:27;;;;;;;16.25;10.95;;;2.60;97.50;;;;;;5033990;28;20100;-86
2021/01/29 07:10:14;;;;;;;15.98;10.90;;;2.50;97.80;;;;;;5038044;28;20048;-86
2021/01/29 07:13:11;;;;;;;19.13;12.20;;;2.50;97.60;;;;;;5037905;28;20037;-86
2021/01/29 07:16:07;;;;;;;16.73;11.57;;;2.50;97.60;;;;;;5039406;28;20029;-86
2021/01/29 07:19:01;;;;;;;13.13;9.70;;;2.60;97.70;;;;;;5032499;28;20064;-86
2021/01/29 07:21:50;;;;;;;17.42;11.80;;;2.60;97.60;;;;;;5037698;28;20045;-86
2021/01/29 07:24:49;;;;;;;15.02;10.45;;;2.60;97.60;;;;;;5036178;28;20037;-86
2021/01/29 07:27:47;;;;;;;13.95;10.07;;;2.60;97.60;;;;;;5044222;28;20086;-86
2021/01/29 07:30:58;;;;;;;15.13;9.90;;;2.60;97.60;;;;;;5035223;28;20567;-85
2021/01/29 07:33:32;;;;;;;13.48;9.15;;;2.60;97.60;;;;;;5041619;28;20042;-86
2021/01/29 07:36:23;;;;;;;15.98;10.85;;;2.60;97.50;;;;;;5034597;28;20048;-86
2021/01/29 07:39:27;;;;;;;13.95;10.40;;;2.60;97.50;;;;;;5035572;28;20049;-85
2021/01/29 07:42:11;;;;;;;16.27;11.48;;;2.60;97.60;;;;;;5032348;28;20618;-85
2021/01/29 07:45:14;;;;;;;16.23;11.23;;;2.60;97.60;;;;;;5029677;28;20152;-85
2021/01/29 07:48:12;;;;;;;12.93;10.00;;;2.60;97.70;;;;;;5028947;28;20064;-85
2021/01/29 07:50:52;;;;;;;15.68;10.63;;;2.60;97.60;;;;;;5041551;28;20040;-83
2021/01/29 07:53:45;;;;;;;14.73;10.35;;;2.60;97.70;;;;;;5041338;28;20064;-85
2021/01/29 07:56:48;;;;;;;13.30;9.35;;;2.60;97.60;;;;;;5037669;28;20041;-85
2021/01/29 07:59:46;;;;;;;11.35;8.85;;;2.60;97.50;;;;;;5041762;28;20041;-85
2021/01/29 08:02:42;;;;;;;10.38;8.43;;;2.60;97.60;;;;;;5038152;28;20175;-86
2021/01/29 08:05:42;;;;;;;11.90;8.97;;;2.60;97.60;;;;;;5039118;28;20064;-84
2021/01/29 08:08:25;;;;;;;13.70;9.63;;;2.60;97.60;;;;;;5035287;28;20050;-85
2021/01/29 08:10:54;;;;;;;15.82;10.38;;;2.60;97.60;;;;;;5029225;28;20040;-86
2021/01/29 08:13:27;;;;;;;17.00;10.02;;;2.60;97.70;;;;;;5037562;28;20102;-83
2021/01/29 08:15:58;;;;;;;15.43;10.07;;;2.60;97.70;;;;;;5030077;28;20049;-85
2021/01/29 08:19:01;;;;;;;14.23;9.75;;;2.70;97.70;;;;;;5043237;28;20048;-86
2021/01/29 08:21:49;;;;;;;10.20;8.02;;;2.70;97.70;;;;;;5043016;28;20052;-84
2021/01/29 08:24:23;;;;;;;14.50;8.82;;;2.70;97.70;;;;;;5033764;28;20402;-83
2021/01/29 08:27:23;;;;;;;10.77;8.80;;;2.70;97.70;;;;;;5039900;28;20348;-86
2021/01/29 08:30:09;;;;;;;11.38;9.05;;;2.70;97.70;;;;;;5037446;28;20069;-86
2021/01/29 08:33:06;;;;;;;12.82;9.27;;;2.70;97.70;;;;;;5043557;28;20032;-85
2021/01/29 08:36:02;;;;;;;15.23;8.73;;;2.70;97.80;;;;;;5029881;28;20037;-82
2021/01/29 08:38:40;;;;;;;13.02;8.98;;;2.70;97.80;;;;;;5037082;28;20095;-84
2021/01/29 08:41:36;;;;;;;10.15;7.93;;;2.70;97.80;;;;;;5037673;28;20079;-82
2021/01/29 08:44:32;;;;;;;12.10;8.48;;;2.70;97.80;;;;;;5035150;28;20157;-81
2021/01/29 08:47:20;;;;;;;10.18;8.05;;;2.80;97.80;;;;;;5031033;28;20116;-83
2021/01/29 08:50:22;;;;;;;11.15;8.38;;;2.80;97.80;;;;;;5039996;28;20422;-82
2021/01/29 08:53:16;;;;;;;12.02;8.73;;;2.80;97.80;;;;;;5029257;28;20064;-81
2021/01/29 08:56:08;;;;;;;12.45;8.48;;;2.80;97.80;;;;;;5037381;28;20044;-84
2021/01/29 08:58:34;;;;;;;11.52;8.50;;;3.10;97.90;;;;;;5048030;28;20061;-85
2021/01/29 09:01:21;;;;;;;11.65;8.32;;;2.80;97.90;;;;;;5036263;28;20034;-87
2021/01/29 09:03:59;;;;;;;10.77;7.35;;;2.90;97.90;;;;;;5037127;28;20037;-86
2021/01/29 09:06:29;;;;;;;9.75;7.38;;;2.90;97.80;;;;;;5038386;28;20033;-84
2021/01/29 09:08:58;;;;;;;11.27;7.93;;;2.90;97.80;;;;;;5031002;28;20121;-86
2021/01/29 09:11:54;;;;;;;11.25;8.57;;;2.90;97.90;;;;;;5055275;28;20437;-83
2021/01/29 09:14:26;;;;;;;10.77;8.13;;;2.90;97.90;;;;;;5029356;28;20076;-82
2021/01/29 09:17:21;;;;;;;15.27;8.48;;;2.90;97.90;;;;;;5033699;28;20038;-81
2021/01/29 09:20:01;;;;;;;9.57;7.65;;;2.90;97.90;;;;;;5034770;28;20133;-85
2021/01/29 09:22:35;;;;;;;9.55;7.35;;;3.00;97.90;;;;;;5038579;28;20580;-85
2021/01/29 09:25:17;;;;;;;10.15;8.30;;;3.00;97.90;;;;;;5036459;28;20059;-85
2021/01/29 09:28:01;;;;;;;10.50;8.05;;;3.00;98.00;;;;;;5033282;28;20106;-85
2021/01/29 09:30:52;;;;;;;11.10;8.45;;;3.00;97.90;;;;;;5031340;28;20033;-85
2021/01/29 09:33:26;;;;;;;9.52;7.95;;;3.00;97.90;;;;;;5029757;28;20093;-84
2021/01/29 09:35:57;;;;;;;13.63;9.52;;;3.00;97.90;;;;;;5037071;28;20037;-85
2021/01/29 09:38:35;;;;;;;14.20;9.27;;;3.10;98.00;;;;;;5039998;28;20045;-86
2021/01/29 09:41:23;;;;;;;17.63;8.77;;;3.10;98.10;;;;;;5040258;28;20106;-85
2021/01/29 09:43:55;;;;;;;13.23;8.95;;;3.10;98.10;;;;;;5041684;28;20472;-86
2021/01/29 09:46:27;;;;;;;9.65;8.20;;;3.10;98.10;;;;;;5038532;28;20057;-85
2021/01/29 09:49:24;;;;;;;14.48;8.48;;;3.10;98.10;;;;;;5036023;28;20041;-86
2021/01/29 09:51:59;;;;;;;13.63;8.70;;;3.20;98.20;;;;;;5038325;28;20424;-87
2021/01/29 09:54:34;;;;;;;13.20;8.50;;;3.20;98.20;;;;;;5035629;28;20034;-87
2021/01/29 09:57:18;;;;;;;11.00;7.35;;;3.20;98.20;;;;;;5032947;28;20288;-86
2021/01/29 10:00:02;;;;;;;12.63;8.70;;;3.20;98.20;;;;;;5043118;28;20049;-86
2021/01/29 10:02:39;;;;;;;12.13;7.72;;;3.20;98.10;;;;;;5038005;28;20038;-84
2021/01/29 10:05:29;;;;;;;9.10;6.45;;;3.30;98.20;;;;;;5033379;28;20459;-85
2021/01/29 10:08:32;;;;;;;9.27;6.95;;;3.30;98.20;;;;;;5035845;28;20127;-84
2021/01/29 10:11:02;;;;;;;12.70;8.02;;;3.30;98.10;;;;;;5034374;28;20084;-83
2021/01/29 10:13:43;;;;;;;7.68;5.93;;;3.30;98.10;;;;;;5035759;28;20076;-84
2021/01/29 10:16:18;;;;;;;10.80;7.93;;;3.30;98.20;;;;;;5037952;28;20041;-85
2021/01/29 10:19:00;;;;;;;11.85;8.18;;;3.40;98.20;;;;;;5039585;28;20055;-84
2021/01/29 10:21:57;;;;;;;10.68;7.50;;;3.40;98.20;;;;;;5033847;28;20045;-85
2021/01/29 10:24:39;;;;;;;19.08;7.10;;;3.50;98.20;;;;;;5032239;28;20045;-85
2021/01/29 10:27:32;;;;;;;11.45;6.50;;;3.50;98.10;;;;;;5031725;28;20041;-84
2021/01/29 10:30:28;;;;;;;7.07;6.38;;;3.50;98.10;;;;;;5031358;28;20037;-85
2021/01/29 10:33:08;;;;;;;22.58;7.97;;;3.60;98.10;;;;;;5023817;28;20049;-83
2021/01/29 10:35:41;;;;;;;12.65;7.53;;;3.60;98.10;;;;;;5035609;28;20044;-83
2021/01/29 10:38:36;;;;;;;11.60;6.50;;;3.60;98.10;;;;;;5031882;28;20047;-84
2021/01/29 10:41:01;;;;;;;7.60;6.60;;;3.70;98.10;;;;;;5030139;28;20069;-82
2021/01/29 10:43:27;;;;;;;8.43;7.38;;;3.70;98.10;;;;;;5035145;28;20674;-85
2021/01/29 10:46:08;;;;;;;8.23;6.88;;;3.80;98.10;;;;;;5032370;28;20057;-84
2021/01/29 10:48:44;;;;;;;12.25;7.97;;;3.80;98.10;;;;;;5030295;28;20033;-85
2021/01/29 10:51:33;;;;;;;25.35;7.63;;;3.80;98.00;;;;;;5039591;28;20042;-83
2021/01/29 10:54:01;;;;;;;12.55;7.75;;;3.90;98.10;;;;;;5042135;28;20037;-83
2021/01/29 10:56:39;;;;;;;23.73;7.55;;;3.90;98.10;;;;;;5032153;28;20044;-83
2021/01/29 10:59:34;;;;;;;13.82;8.93;;;4.00;98.10;;;;;;5034778;28;20490;-84
2021/01/29 11:02:05;;;;;;;19.33;9.80;;;4.10;98.20;;;;;;5027052;28;20064;-84
2021/01/29 11:04:45;;;;;;;11.73;8.48;;;4.10;98.20;;;;;;5034856;28;20045;-86
2021/01/29 11:07:33;;;;;;;20.17;11.05;;;4.20;98.50;;;;;;5036667;28;20479;-85
2021/01/29 11:10:20;;;;;;;13.60;9.07;;;4.30;98.50;;;;;;5033393;28;20085;-85
2021/01/29 11:13:11;;;;;;;17.65;10.05;;;4.40;98.90;;;;;;5034165;28;20065;-84
2021/01/29 11:15:54;;;;;;;22.73;11.73;;;4.50;99.10;;;;;;5050942;28;20056;-85
2021/01/29 11:18:34;;;;;;;16.90;8.98;;;4.60;99.10;;;;;;5035320;28;20038;-87
2021/01/29 11:21:38;;;;;;;21.77;10.30;;;4.70;99.30;;;;;;5030846;28;20034;-85
2021/01/29 11:24:17;;;;;;;28.17;11.32;;;4.80;99.20;;;;;;5040216;28;20317;-84
2021/01/29 11:26:52;;;;;;;37.72;9.40;;;5.00;99.40;;;;;;5033288;28;20034;-84
2021/01/29 11:29:28;;;;;;;35.57;10.80;;;5.30;99.90;;;;;;5019359;28;20077;-85
2021/01/29 11:32:12;;;;;;;43.55;10.38;;;5.50;99.90;;;;;;5033214;28;20072;-84
2021/01/29 11:34:39;;;;;;;42.67;8.30;;;5.80;99.90;;;;;;5032009;28;20047;-86
2021/01/29 11:37:21;;;;;;;47.10;8.65;;;6.70;99.90;;;;;;5017272;28;20103;-84
2021/01/29 11:39:58;;;;;;;42.47;9.13;;;6.30;99.90;;;;;;5039054;28;20043;-83
2021/01/29 11:42:38;;;;;;;44.40;8.55;;;6.60;99.90;;;;;;5016735;28;20042;-87
2021/01/29 11:45:18;;;;;;;53.50;9.23;;;6.70;99.90;;;;;;5027939;28;20117;-87
2021/01/29 11:48:08;;;;;;;48.95;8.10;;;6.80;99.90;;;;;;5035777;28;20050;-87
2021/01/29 11:50:42;;;;;;;47.90;9.13;;;6.90;99.90;;;;;;5039989;28;20052;-87
2021/01/29 11:53:18;;;;;;;56.72;8.38;;;7.00;99.90;;;;;;5044419;28;20045;-84
2021/01/29 11:55:50;;;;;;;47.03;7.07;;;7.00;99.90;;;;;;5042634;28;20033;-85
2021/01/29 11:58:38;;;;;;;39.75;6.78;;;7.10;99.90;;;;;;5018619;28;20404;-86
2021/01/29 12:01:34;;;;;;;48.95;7.90;;;7.10;99.90;;;;;;5036631;28;20124;-85
2021/01/29 12:04:34;;;;;;;48.63;6.05;;;7.20;99.90;;;;;;5029127;28;20083;-84
2021/01/29 12:07:15;;;;;;;38.72;5.40;;;7.20;99.90;;;;;;5028748;28;22111;-86
2021/01/29 12:09:48;;;;;;;40.75;5.85;;;7.20;99.90;;;;;;5032956;28;20072;-83
2021/01/29 12:12:18;;;;;;;40.83;5.95;;;7.20;99.90;;;;;;5035462;28;20030;-84
2021/01/29 12:15:08;;;;;;;41.53;6.63;;;7.40;99.90;;;;;;5031141;28;20467;-86
2021/01/29 12:17:36;;;;;;;49.08;5.75;;;7.20;99.90;;;;;;5033716;28;20057;-85
2021/01/29 12:20:09;;;;;;;47.25;6.40;;;7.20;99.90;;;;;;5030422;28;20045;-85
2021/01/29 12:22:50;;;;;;;49.53;5.65;;;7.20;99.90;;;;;;5032750;28;20041;-84
2021/01/29 12:25:44;;;;;;;54.30;6.65;;;7.20;99.90;;;;;;5017995;28;20091;-83
2021/01/29 12:28:53;;;;;;;44.72;6.75;;;7.20;99.90;;;;;;5031855;28;20045;-85
2021/01/29 12:31:31;;;;;;;34.60;4.78;;;7.20;99.90;;;;;;5039169;28;20042;-84
2021/01/29 12:34:17;;;;;;;33.50;5.53;;;7.20;99.90;;;;;;5038376;28;20073;-85
2021/01/29 12:37:05;;;;;;;37.50;4.65;;;7.20;99.90;;;;;;5042810;28;20037;-86
2021/01/29 12:39:39;;;;;;;33.05;6.43;;;7.20;99.90;;;;;;5010709;28;20045;-85
2021/01/29 12:42:14;;;;;;;29.67;4.18;;;7.30;99.90;;;;;;5039419;28;20041;-85
2021/01/29 12:44:46;;;;;;;29.55;4.70;;;7.60;99.90;;;;;;5017036;28;20045;-85
2021/01/29 12:47:36;;;;;;;32.80;5.40;;;7.30;99.80;;;;;;5037699;28;20117;-84
2021/01/29 12:50:24;;;;;;;33.75;6.03;;;7.30;99.70;;;;;;5018508;28;20805;-84
2021/01/29 12:52:56;;;;;;;37.22;6.28;;;7.30;99.70;;;;;;5027807;28;20135;-85
2021/01/29 12:55:31;;;;;;;36.88;6.43;;;7.30;99.70;;;;;;5031762;28;20030;-84
2021/01/29 12:58:06;;;;;;;36.95;6.25;;;7.40;99.70;;;;;;5046182;28;20134;-84
2021/01/29 13:00:38;;;;;;;;;;;7.40;99.60;;;;;;5013618;28;20404;-83
2021/01/29 13:03:14;;;;;;;36.72;5.82;;;7.40;99.40;;;;;;5014964;28;19924;-83
2021/01/29 13:06:06;;;;;;;33.58;6.22;;;7.40;99.40;;;;;;5019740;28;20050;-83
2021/01/29 13:09:05;;;;;;;36.28;6.57;;;7.70;99.40;;;;;;5018307;28;20103;-85
2021/01/29 13:12:09;;;;;;;41.63;6.50;;;7.40;99.20;;;;;;5017250;28;20099;-84
2021/01/29 13:15:21;;;;;;;45.33;6.40;;;7.50;99.20;;;;;;5017937;28;20048;-85
2021/01/29 13:17:58;;;;;;;45.83;6.20;;;7.50;99.20;;;;;;5035887;28;20501;-86
2021/01/29 13:20:37;;;;;;;41.22;6.03;;;7.50;99.10;;;;;;5030822;28;20037;-83
2021/01/29 13:23:31;;;;;;;40.05;5.97;;;7.60;99.10;;;;;;5022822;28;20044;-84
2021/01/29 13:25:59;;;;;;;33.17;5.15;;;7.50;99.10;;;;;;5034615;28;20474;-83
2021/01/29 13:28:28;;;;;;;36.45;5.78;;;7.60;99.10;;;;;;5019778;28;20037;-83
2021/01/29 13:30:55;;;;;;;41.22;5.88;;;7.60;99.40;;;;;;5028793;28;20033;-86
2021/01/29 13:33:28;;;;;;;39.38;5.88;;;7.60;99.00;;;;;;5035703;28;20037;-84
2021/01/29 13:36:23;;;;;;;35.40;4.95;;;7.60;99.00;;;;;;5036145;28;20045;-83
2021/01/29 13:38:50;;;;;;;27.52;4.38;;;7.40;98.80;;;;;;5021344;28;20067;-85
2021/01/29 13:41:42;;;;;;;31.08;6.10;;;7.60;98.80;;;;;;5023653;28;20041;-84
2021/01/29 13:44:34;;;;;;;41.00;5.15;;;7.60;98.80;;;;;;5017317;28;20041;-83
2021/01/29 13:47:03;;;;;;;37.90;5.28;;;7.60;99.00;;;;;;5034043;28;20042;-83
2021/01/29 13:49:41;;;;;;;24.13;3.80;;;7.60;98.80;;;;;;5017115;28;20129;-84
2021/01/29 13:52:27;;;;;;;28.85;4.05;;;7.60;98.70;;;;;;5038129;28;20091;-86
2021/01/29 13:54:54;;;;;;;28.40;3.58;;;7.60;98.70;;;;;;5029358;28;20037;-85
2021/01/29 13:57:43;;;;;;;30.90;4.45;;;7.60;98.80;;;;;;5021295;28;20050;-84